Time;durP1;ratioP1;P1;durP2;ratioP2;P2;SDS_P1;SDS_P2;PMS_P1;PMS_P2;Temp;Humidity;BMP_temperature;BMP_pressure;BME280_temperature;BME280_humidity;BME280_pressure;Samples;Min_cycle;Max_cycle;Signal;HPM_P1;HPM_P2
2022/06/06 00:00:47;;;;;;;2.28;1.95;;;19.20;53.20;;;;;;6195328;23;20152;-86
2022/06/06 00:03:14;;;;;;;3.17;2.30;;;19.30;53.20;;;;;;6184606;23;20215;-86
2022/06/06 00:05:42;;;;;;;2.10;1.90;;;19.20;53.10;;;;;;6165207;23;20146;-86
2022/06/06 00:08:08;;;;;;;3.40;2.15;;;19.20;53.20;;;;;;6164793;23;20162;-87
2022/06/06 00:10:33;;;;;;;2.58;2.20;;;19.30;53.10;;;;;;6189409;23;20192;-86
2022/06/06 00:12:59;;;;;;;2.72;2.22;;;19.20;53.10;;;;;;6189558;23;20640;-86
2022/06/06 00:15:25;;;;;;;2.50;2.30;;;19.20;53.10;;;;;;6215926;23;20165;-86
2022/06/06 00:17:50;;;;;;;2.42;2.22;;;19.20;53.20;;;;;;6189326;23;20601;-86
2022/06/06 00:20:16;;;;;;;2.20;2.00;;;19.20;53.20;;;;;;6165060;23;20131;-86
2022/06/06 00:22:42;;;;;;;2.33;2.13;;;19.10;53.20;;;;;;6139997;23;20224;-86
2022/06/06 00:25:08;;;;;;;2.72;2.45;;;19.20;53.20;;;;;;6139799;23;20146;-86
2022/06/06 00:27:34;;;;;;;2.38;2.17;;;19.20;53.20;;;;;;6139970;23;20150;-86
2022/06/06 00:30:00;;;;;;;2.63;2.42;;;19.20;53.20;;;;;;6139791;23;20579;-86
2022/06/06 00:35:10;;;;;;;2.42;2.22;;;19.20;53.30;;;;;;6172173;23;20135;-86
2022/06/06 00:37:38;;;;;;;2.50;2.30;;;19.20;54.10;;;;;;6140453;23;20203;-86
2022/06/06 00:40:04;;;;;;;2.40;2.20;;;19.20;53.50;;;;;;6164998;23;20287;-87
2022/06/06 00:42:33;;;;;;;3.58;2.63;;;19.20;53.40;;;;;;6164756;23;20126;-86
2022/06/06 00:45:24;;;;;;;2.33;2.13;;;19.20;53.50;;;;;;6164489;23;20489;-87
2022/06/06 00:47:57;;;;;;;2.42;2.22;;;19.20;53.40;;;;;;6159375;23;20138;-86
2022/06/06 00:50:33;;;;;;;2.30;2.10;;;19.20;53.50;;;;;;6159646;23;20158;-86
2022/06/06 00:53:00;;;;;;;2.40;2.20;;;19.20;53.50;;;;;;6167155;23;20209;-86
2022/06/06 00:55:28;;;;;;;2.40;2.15;;;19.20;53.50;;;;;;6140259;23;20150;-88
2022/06/06 00:57:57;;;;;;;2.38;2.17;;;19.20;53.50;;;;;;6139487;23;20142;-86
2022/06/06 01:00:23;;;;;;;2.40;2.20;;;19.20;53.50;;;;;;6189896;23;20138;-86
2022/06/06 01:02:51;;;;;;;2.78;2.45;;;19.20;53.50;;;;;;6145184;23;20193;-86
2022/06/06 01:05:18;;;;;;;2.60;2.40;;;19.10;53.50;;;;;;6170253;23;20165;-86
2022/06/06 01:07:44;;;;;;;2.35;2.15;;;19.20;53.60;;;;;;6219245;23;20133;-86
2022/06/06 01:10:10;;;;;;;3.08;2.30;;;19.10;53.50;;;;;;6194369;23;20164;-87
2022/06/06 01:12:35;;;;;;;2.88;2.10;;;19.10;53.50;;;;;;6169201;23;20206;-86
2022/06/06 01:15:05;;;;;;;2.40;2.20;;;19.10;53.70;;;;;;6219235;23;20470;-86
2022/06/06 01:18:05;;;;;;;2.22;2.03;;;19.10;53.70;;;;;;6169536;23;20155;-86
2022/06/06 01:21:05;;;;;;;2.30;2.10;;;19.10;54.50;;;;;;6195378;23;20592;-86
2022/06/06 01:24:08;;;;;;;2.53;2.33;;;19.00;53.60;;;;;;6177624;23;20164;-86
2022/06/06 01:27:08;;;;;;;2.53;2.33;;;19.10;53.80;;;;;;6223129;23;20231;-87
2022/06/06 01:29:36;;;;;;;2.00;1.90;;;19.10;53.70;;;;;;6219057;23;20181;-86
2022/06/06 01:32:08;;;;;;;2.20;2.00;;;19.10;53.60;;;;;;6169678;23;20225;-86
2022/06/06 01:34:36;;;;;;;2.95;2.00;;;19.10;53.80;;;;;;6194518;23;20180;-86
2022/06/06 01:37:02;;;;;;;2.53;2.33;;;19.10;53.70;;;;;;6194417;23;20126;-86
2022/06/06 01:39:29;;;;;;;2.50;2.30;;;19.10;53.70;;;;;;6169819;23;20159;-86
2022/06/06 01:42:12;;;;;;;2.67;2.25;;;19.10;53.70;;;;;;6194108;23;20161;-86
2022/06/06 01:44:47;;;;;;;2.72;2.17;;;19.10;53.70;;;;;;6196027;23;20156;-86
2022/06/06 01:47:16;;;;;;;2.58;2.38;;;19.00;54.40;;;;;;6171786;23;20149;-86
2022/06/06 01:49:42;;;;;;;2.00;1.80;;;19.10;53.90;;;;;;6196345;23;20165;-86
2022/06/06 01:52:10;;;;;;;2.42;2.22;;;19.10;53.70;;;;;;6196068;23;20129;-86
2022/06/06 01:54:36;;;;;;;2.38;2.17;;;19.10;53.80;;;;;;6172137;23;20177;-86
2022/06/06 01:57:03;;;;;;;2.50;2.30;;;19.10;53.80;;;;;;6195888;23;20446;-86
2022/06/06 01:59:28;;;;;;;2.83;2.28;;;19.10;53.90;;;;;;6195637;23;20196;-86
2022/06/06 02:01:54;;;;;;;2.38;2.13;;;19.10;53.90;;;;;;6170960;23;20149;-86
2022/06/06 02:04:20;;;;;;;2.25;2.05;;;19.10;54.00;;;;;;6170644;23;20233;-87
2022/06/06 02:06:46;;;;;;;2.40;2.20;;;19.10;53.90;;;;;;6170984;23;20483;-86
2022/06/06 02:09:11;;;;;;;2.30;2.10;;;19.00;53.70;;;;;;6170732;23;20554;-86
2022/06/06 02:11:38;;;;;;;2.40;2.20;;;19.00;53.90;;;;;;6195655;23;20587;-86
2022/06/06 02:14:04;;;;;;;2.63;2.40;;;19.10;53.80;;;;;;6196037;23;20191;-86
2022/06/06 02:16:30;;;;;;;2.72;2.35;;;19.00;53.90;;;;;;6171686;23;20565;-87
2022/06/06 02:18:55;;;;;;;2.40;2.20;;;19.00;53.90;;;;;;6170855;23;20160;-86
2022/06/06 02:21:21;;;;;;;2.40;2.20;;;19.10;53.90;;;;;;6195580;23;20179;-87
2022/06/06 02:23:48;;;;;;;3.63;2.40;;;19.00;53.90;;;;;;6247365;23;20144;-86
2022/06/06 02:26:15;;;;;;;2.45;2.25;;;19.10;53.90;;;;;;6171190;23;20160;-86
2022/06/06 02:28:41;;;;;;;2.40;2.20;;;19.00;53.90;;;;;;6195603;23;20596;-86
2022/06/06 02:31:06;;;;;;;2.38;2.17;;;19.00;53.90;;;;;;6195511;23;20135;-86
2022/06/06 02:33:32;;;;;;;2.28;2.05;;;19.00;53.90;;;;;;6170727;23;20155;-86
2022/06/06 02:36:00;;;;;;;2.50;2.30;;;19.00;53.90;;;;;;6171022;23;20462;-87
2022/06/06 02:38:26;;;;;;;2.53;2.33;;;19.00;54.00;;;;;;6171526;23;20228;-86
2022/06/06 02:40:52;;;;;;;2.55;2.20;;;19.00;54.00;;;;;;6195582;23;20208;-86
2022/06/06 02:43:21;;;;;;;2.40;2.20;;;19.00;54.00;;;;;;6195393;23;20536;-86
2022/06/06 02:45:48;;;;;;;2.78;2.40;;;19.00;54.00;;;;;;6171771;23;20150;-86
2022/06/06 02:48:14;;;;;;;2.50;2.30;;;19.00;54.00;;;;;;6170521;23;20183;-86
2022/06/06 02:50:40;;;;;;;3.10;2.20;;;18.90;54.00;;;;;;6195413;23;20244;-87
2022/06/06 02:53:06;;;;;;;2.20;2.00;;;19.00;54.00;;;;;;6170451;23;20146;-86
2022/06/06 02:55:32;;;;;;;2.72;2.20;;;19.00;54.10;;;;;;6170422;23;20224;-86
2022/06/06 02:57:58;;;;;;;2.40;2.20;;;19.00;54.10;;;;;;6170501;23;20172;-86
2022/06/06 03:00:26;;;;;;;2.38;2.17;;;19.00;54.10;;;;;;6170498;23;20154;-86
2022/06/06 03:02:52;;;;;;;2.30;2.10;;;19.00;54.20;;;;;;6170178;23;20223;-86
2022/06/06 03:05:19;;;;;;;2.50;2.05;;;19.00;54.20;;;;;;6170309;23;20153;-86
2022/06/06 03:08:05;;;;;;;2.40;2.20;;;19.00;54.40;;;;;;6170143;23;20152;-86
2022/06/06 03:10:55;;;;;;;2.80;2.30;;;19.00;54.30;;;;;;6220196;23;20129;-87
2022/06/06 03:13:48;;;;;;;2.45;2.25;;;19.00;54.30;;;;;;6198359;23;20153;-86
2022/06/06 03:22:22;;;;;;;2.40;1.95;;;19.00;54.20;;;;;;6224310;23;20565;-86
2022/06/06 03:25:16;;;;;;;2.72;2.47;;;18.90;54.30;;;;;;6195588;23;20561;-86
2022/06/06 03:27:56;;;;;;;2.10;1.90;;;18.90;54.30;;;;;;6196994;23;20153;-86
2022/06/06 03:30:45;;;;;;;2.53;2.33;;;19.00;54.50;;;;;;6172011;23;20168;-86
2022/06/06 03:33:36;;;;;;;2.38;2.17;;;19.00;54.30;;;;;;6198782;23;20133;-86
2022/06/06 03:36:10;;;;;;;2.40;2.20;;;19.00;54.30;;;;;;6220012;23;20580;-87
2022/06/06 03:38:53;;;;;;;2.30;2.10;;;19.00;54.30;;;;;;6196345;23;20130;-86
2022/06/06 03:41:31;;;;;;;2.42;2.08;;;19.00;54.20;;;;;;6219957;23;20528;-86
2022/06/06 03:44:27;;;;;;;2.38;2.10;;;19.00;54.30;;;;;;6171835;23;20206;-86
2022/06/06 03:47:03;;;;;;;2.58;2.20;;;19.00;54.30;;;;;;6201318;23;20157;-86
2022/06/06 03:49:46;;;;;;;2.40;2.20;;;19.00;54.30;;;;;;6246473;23;20169;-87
2022/06/06 03:52:29;;;;;;;2.40;2.20;;;19.00;54.20;;;;;;6197626;23;20134;-87
2022/06/06 03:55:03;;;;;;;2.00;1.80;;;19.00;54.30;;;;;;6196671;23;20557;-87
2022/06/06 03:57:29;;;;;;;2.40;2.20;;;19.00;54.30;;;;;;6195984;23;20152;-86
2022/06/06 03:59:56;;;;;;;2.17;1.98;;;18.90;54.40;;;;;;6220411;23;20489;-86
2022/06/06 04:02:28;;;;;;;2.38;2.17;;;18.90;54.50;;;;;;6195341;23;20141;-86
2022/06/06 04:04:55;;;;;;;2.45;2.22;;;19.00;54.40;;;;;;6221254;23;20153;-87
2022/06/06 04:07:21;;;;;;;2.50;2.30;;;18.90;54.60;;;;;;6169732;23;20145;-86
2022/06/06 04:09:47;;;;;;;2.28;2.08;;;18.90;54.50;;;;;;6194783;23;20250;-87
2022/06/06 04:12:22;;;;;;;2.40;2.20;;;18.90;54.40;;;;;;6170075;23;20476;-86
2022/06/06 04:15:09;;;;;;;2.28;2.08;;;18.90;54.50;;;;;;6170902;23;20520;-87
2022/06/06 04:18:05;;;;;;;2.53;2.10;;;19.00;54.40;;;;;;6246631;23;20160;-87
2022/06/06 04:20:37;;;;;;;2.53;2.28;;;18.90;54.20;;;;;;6175941;23;20181;-87
2022/06/06 04:23:26;;;;;;;2.30;2.10;;;19.00;54.30;;;;;;6219364;23;20141;-87
2022/06/06 04:26:10;;;;;;;2.90;2.22;;;19.00;54.60;;;;;;6203249;23;20190;-87
2022/06/06 04:29:10;;;;;;;2.25;2.05;;;19.00;54.50;;;;;;6197104;23;20229;-87
2022/06/06 04:31:55;;;;;;;2.40;2.20;;;18.90;54.50;;;;;;6220076;23;20199;-87
2022/06/06 04:34:40;;;;;;;2.30;2.10;;;18.90;54.30;;;;;;6219445;23;20134;-86
2022/06/06 04:37:19;;;;;;;2.22;1.90;;;19.00;54.30;;;;;;6198621;23;20145;-86
2022/06/06 04:39:56;;;;;;;2.55;2.17;;;19.00;54.00;;;;;;6170735;23;20576;-87
2022/06/06 04:42:52;;;;;;;2.30;2.10;;;19.00;54.10;;;;;;6170371;23;20149;-86
2022/06/06 04:45:27;;;;;;;2.38;2.00;;;19.00;54.10;;;;;;6173219;23;20152;-86
2022/06/06 04:47:54;;;;;;;2.20;1.90;;;19.00;54.10;;;;;;6171305;23;20145;-86
2022/06/06 04:50:20;;;;;;;2.53;2.30;;;18.90;54.10;;;;;;6194427;23;20157;-86
2022/06/06 04:52:51;;;;;;;1.98;1.80;;;19.00;54.10;;;;;;6194396;23;20411;-86
2022/06/06 04:55:17;;;;;;;1.85;1.75;;;18.90;53.90;;;;;;6170016;23;20217;-85
2022/06/06 04:57:46;;;;;;;2.75;2.20;;;19.00;53.60;;;;;;6194779;23;20138;-87
2022/06/06 05:00:12;;;;;;;2.30;1.85;;;19.00;53.70;;;;;;6194900;23;20133;-87
2022/06/06 05:02:38;;;;;;;2.30;2.10;;;19.00;53.40;;;;;;6218992;23;20212;-86
2022/06/06 05:05:05;;;;;;;2.22;1.98;;;19.00;53.50;;;;;;6219668;23;20187;-87
2022/06/06 05:07:44;;;;;;;2.97;2.20;;;19.00;53.20;;;;;;6169988;23;20153;-87
2022/06/06 05:10:33;;;;;;;2.45;1.98;;;19.00;53.30;;;;;;6195711;23;20134;-86
2022/06/06 05:13:33;;;;;;;2.15;1.95;;;19.00;53.20;;;;;;6194196;23;20153;-86
2022/06/06 05:16:10;;;;;;;2.15;1.95;;;19.00;53.40;;;;;;6219753;23;20160;-87
2022/06/06 05:18:46;;;;;;;2.10;1.77;;;18.90;53.30;;;;;;6171337;23;20165;-87
2022/06/06 05:21:24;;;;;;;2.00;1.77;;;19.00;53.00;;;;;;6195923;23;20156;-87
2022/06/06 05:24:17;;;;;;;2.20;1.80;;;19.00;53.00;;;;;;6198210;23;20133;-87
2022/06/06 05:27:03;;;;;;;2.08;1.85;;;19.00;52.90;;;;;;6201624;23;20146;-87
2022/06/06 05:30:04;;;;;;;2.08;1.80;;;18.90;52.80;;;;;;6196852;23;20173;-86
2022/06/06 05:32:57;;;;;;;1.77;1.67;;;18.90;52.60;;;;;;6228994;23;20132;-87
2022/06/06 05:35:45;;;;;;;2.13;1.92;;;19.00;52.80;;;;;;6176823;23;20146;-86
2022/06/06 05:38:22;;;;;;;2.22;1.95;;;19.00;52.60;;;;;;6221623;23;20207;-87
2022/06/06 05:41:24;;;;;;;2.38;1.95;;;19.00;52.50;;;;;;6172359;23;20145;-87
2022/06/06 05:44:15;;;;;;;1.80;1.70;;;19.00;52.50;;;;;;6220854;23;20151;-86
2022/06/06 05:47:05;;;;;;;1.88;1.77;;;19.00;52.60;;;;;;6204201;23;20138;-86
2022/06/06 05:50:01;;;;;;;1.80;1.70;;;19.00;52.60;;;;;;6199597;23;20211;-86
2022/06/06 05:52:45;;;;;;;2.05;1.83;;;19.00;52.70;;;;;;6174637;23;20170;-86
2022/06/06 05:55:34;;;;;;;2.00;1.80;;;19.00;52.50;;;;;;6198790;23;20145;-87
2022/06/06 05:58:27;;;;;;;2.08;1.88;;;19.00;52.40;;;;;;6199317;23;20577;-86
2022/06/06 06:01:25;;;;;;;2.30;1.80;;;19.00;52.30;;;;;;6176423;23;20168;-85
2022/06/06 06:04:11;;;;;;;1.70;1.60;;;18.90;52.10;;;;;;6203414;23;20221;-86
2022/06/06 06:07:16;;;;;;;1.65;1.55;;;19.00;51.90;;;;;;6196638;23;20152;-87
2022/06/06 06:10:11;;;;;;;2.10;1.90;;;19.00;52.30;;;;;;6248481;23;20608;-87
2022/06/06 06:13:08;;;;;;;1.48;1.38;;;19.00;51.50;;;;;;6177891;23;20137;-87
2022/06/06 06:15:42;;;;;;;1.98;1.88;;;19.10;51.40;;;;;;6205881;23;20137;-87
2022/06/06 06:18:29;;;;;;;1.70;1.55;;;19.00;51.70;;;;;;6221884;23;20129;-87
2022/06/06 06:21:05;;;;;;;2.10;1.77;;;19.00;51.40;;;;;;6197419;23;20156;-86
2022/06/06 06:23:33;;;;;;;1.50;1.40;;;19.00;51.60;;;;;;6173581;23;20149;-86
2022/06/06 06:26:00;;;;;;;1.60;1.50;;;19.00;51.40;;;;;;6197131;23;20249;-87
2022/06/06 06:28:27;;;;;;;2.45;1.80;;;19.10;51.20;;;;;;6171851;23;20179;-86
2022/06/06 06:31:17;;;;;;;1.80;1.70;;;19.10;51.20;;;;;;6197006;23;20507;-86
2022/06/06 06:33:57;;;;;;;2.08;1.90;;;19.10;51.50;;;;;;6176359;23;20184;-86
2022/06/06 06:36:36;;;;;;;1.85;1.73;;;19.00;51.30;;;;;;6199596;23;20608;-87
2022/06/06 06:39:23;;;;;;;2.00;1.70;;;19.10;51.40;;;;;;6198670;23;20207;-86
2022/06/06 06:42:12;;;;;;;1.60;1.50;;;19.10;51.40;;;;;;6175067;23;20146;-87
2022/06/06 06:44:42;;;;;;;2.08;1.70;;;19.10;51.20;;;;;;6200256;23;20187;-86
2022/06/06 06:47:11;;;;;;;1.60;1.50;;;19.10;51.00;;;;;;6171980;23;20228;-86
2022/06/06 06:49:46;;;;;;;1.58;1.48;;;19.10;50.90;;;;;;6196662;23;20492;-86
2022/06/06 06:52:29;;;;;;;2.17;1.75;;;19.10;51.00;;;;;;6197152;23;20154;-87
2022/06/06 06:55:30;;;;;;;1.80;1.70;;;19.10;50.90;;;;;;6198938;23;20182;-87
2022/06/06 06:58:15;;;;;;;2.10;1.90;;;19.10;50.70;;;;;;6225258;23;20148;-87
2022/06/06 07:01:00;;;;;;;1.88;1.70;;;19.10;50.60;;;;;;6220792;23;20596;-87
2022/06/06 07:09:42;;;;;;;2.20;1.95;;;19.10;50.30;;;;;;6203542;23;20485;-87
2022/06/06 07:12:26;;;;;;;2.22;1.98;;;19.10;50.30;;;;;;6221425;23;20233;-87
2022/06/06 07:15:02;;;;;;;1.75;1.60;;;19.10;50.10;;;;;;6130766;23;20235;-88
2022/06/06 07:17:30;;;;;;;1.65;1.55;;;19.20;50.20;;;;;;6130566;23;20151;-87
2022/06/06 07:20:03;;;;;;;1.90;1.52;;;19.10;50.20;;;;;;6106480;23;20487;-88
2022/06/06 07:22:59;;;;;;;1.80;1.70;;;19.20;50.30;;;;;;6072335;23;20189;-87
2022/06/06 07:25:21;;;;;;;1.55;1.45;;;19.20;50.10;;;;;;6029165;23;20159;-87
2022/06/06 07:27:47;;;;;;;2.33;1.90;;;19.20;50.30;;;;;;5987400;23;20166;-87
2022/06/06 07:30:13;;;;;;;1.83;1.60;;;19.20;50.20;;;;;;5987164;23;20270;-87
2022/06/06 07:32:48;;;;;;;1.70;1.60;;;19.20;50.20;;;;;;5987601;23;20198;-87
2022/06/06 07:35:25;;;;;;;2.53;1.75;;;19.20;50.10;;;;;;5989081;23;20246;-86
2022/06/06 07:38:22;;;;;;;2.05;1.85;;;19.20;50.10;;;;;;5988408;23;20162;-87
2022/06/06 07:40:57;;;;;;;2.28;1.67;;;19.20;50.00;;;;;;6009907;23;20590;-87
2022/06/06 07:43:37;;;;;;;1.70;1.60;;;19.20;50.00;;;;;;5988114;23;20574;-87
2022/06/06 07:46:30;;;;;;;1.85;1.73;;;19.20;49.90;;;;;;6040214;23;20645;-86
2022/06/06 07:49:05;;;;;;;1.70;1.60;;;19.30;50.00;;;;;;6072421;23;20176;-87
2022/06/06 07:51:43;;;;;;;1.70;1.60;;;19.30;49.90;;;;;;6048401;23;20199;-87
2022/06/06 07:54:32;;;;;;;2.30;1.83;;;19.20;49.90;;;;;;6094781;23;20286;-87
2022/06/06 07:57:22;;;;;;;1.77;1.65;;;19.20;50.00;;;;;;6194170;23;20156;-87
2022/06/06 08:00:13;;;;;;;1.67;1.50;;;19.20;50.00;;;;;;6197305;23;20279;-87
2022/06/06 08:02:59;;;;;;;1.35;1.25;;;19.20;49.90;;;;;;6197818;23;20252;-87
2022/06/06 08:05:55;;;;;;;1.70;1.60;;;19.20;49.90;;;;;;6219300;23;20157;-87
2022/06/06 08:08:45;;;;;;;2.53;1.85;;;19.20;49.80;;;;;;6219783;23;20165;-87
2022/06/06 08:11:44;;;;;;;2.40;1.85;;;19.30;49.80;;;;;;6224184;23;20589;-87
2022/06/06 08:14:17;;;;;;;2.00;1.80;;;19.30;49.70;;;;;;6223503;23;20525;-87
2022/06/06 08:16:50;;;;;;;1.60;1.50;;;19.30;49.60;;;;;;6195832;23;20510;-87
2022/06/06 08:19:35;;;;;;;2.10;1.60;;;19.20;49.60;;;;;;6195272;23;20164;-87
2022/06/06 08:22:00;;;;;;;2.05;1.85;;;19.20;49.60;;;;;;6171907;23;20577;-86
2022/06/06 08:24:43;;;;;;;2.35;1.83;;;19.20;49.50;;;;;;6169661;23;20156;-87
2022/06/06 08:27:11;;;;;;;1.90;1.70;;;19.20;49.30;;;;;;6194996;23;20540;-88
2022/06/06 08:29:39;;;;;;;1.70;1.60;;;19.20;49.10;;;;;;6195099;23;20488;-87
2022/06/06 08:32:05;;;;;;;1.88;1.70;;;19.30;49.10;;;;;;6169896;23;20530;-87
2022/06/06 08:34:33;;;;;;;2.03;1.77;;;19.30;48.90;;;;;;6194779;23;20155;-87
2022/06/06 08:37:37;;;;;;;1.83;1.67;;;19.30;48.80;;;;;;6195082;23;20647;-87
2022/06/06 08:40:25;;;;;;;2.25;1.70;;;19.30;48.40;;;;;;6202688;23;20220;-87
2022/06/06 08:43:25;;;;;;;1.80;1.50;;;19.30;48.50;;;;;;6246661;23;20160;-87
2022/06/06 08:45:53;;;;;;;1.90;1.63;;;19.30;48.10;;;;;;6219679;23;20160;-87
2022/06/06 08:48:38;;;;;;;1.55;1.45;;;19.30;48.20;;;;;;6194735;23;20177;-87
2022/06/06 08:51:36;;;;;;;1.83;1.70;;;19.30;48.20;;;;;;6172363;23;20145;-87
2022/06/06 08:54:18;;;;;;;1.67;1.50;;;19.30;47.70;;;;;;6247041;23;20125;-87
2022/06/06 08:57:24;;;;;;;1.40;1.30;;;19.30;47.80;;;;;;6197010;23;20244;-87
2022/06/06 09:00:16;;;;;;;1.52;1.42;;;19.20;47.80;;;;;;6183250;23;20152;-87
2022/06/06 09:03:04;;;;;;;1.98;1.50;;;19.30;47.60;;;;;;6171636;23;20524;-86
2022/06/06 09:05:45;;;;;;;1.60;1.50;;;19.40;47.60;;;;;;6194354;23;20154;-87
2022/06/06 09:08:51;;;;;;;1.65;1.50;;;19.30;47.50;;;;;;6196068;23;20221;-87
2022/06/06 09:11:47;;;;;;;1.83;1.70;;;19.40;47.60;;;;;;6199069;23;20160;-87
2022/06/06 09:14:39;;;;;;;1.70;1.50;;;19.30;47.80;;;;;;6247296;23;20208;-87
2022/06/06 09:17:41;;;;;;;1.45;1.35;;;19.30;47.60;;;;;;6200318;23;20157;-87
2022/06/06 09:20:18;;;;;;;3.15;1.52;;;19.30;47.40;;;;;;6204160;23;20568;-86
2022/06/06 09:23:04;;;;;;;1.65;1.50;;;19.40;46.90;;;;;;6197908;23;20153;-87
2022/06/06 09:25:43;;;;;;;2.28;1.50;;;19.50;47.10;;;;;;6196685;23;20157;-87
2022/06/06 09:28:49;;;;;;;1.67;1.30;;;19.40;46.90;;;;;;6223132;23;20566;-87
2022/06/06 09:31:48;;;;;;;1.80;1.40;;;19.50;46.80;;;;;;6201504;23;20487;-87
2022/06/06 09:34:48;;;;;;;1.73;1.40;;;19.50;46.80;;;;;;6250917;23;20141;-86
2022/06/06 09:37:33;;;;;;;1.65;1.45;;;19.50;46.60;;;;;;6230682;23;20224;-86
2022/06/06 09:40:29;;;;;;;1.60;1.50;;;19.50;46.40;;;;;;6222982;23;20190;-87
2022/06/06 09:43:25;;;;;;;1.88;1.50;;;19.40;46.20;;;;;;6249139;23;20156;-87
2022/06/06 09:46:19;;;;;;;1.50;1.40;;;19.40;46.20;;;;;;6202233;23;20153;-88
2022/06/06 09:49:17;;;;;;;2.47;1.70;;;19.40;46.00;;;;;;6196826;23;20204;-87
2022/06/06 09:52:10;;;;;;;1.70;1.60;;;19.40;46.20;;;;;;6199574;23;20591;-87
2022/06/06 10:01:30;;;;;;;2.15;1.70;;;19.40;45.80;;;;;;6208728;23;20161;-87
2022/06/06 10:04:30;;;;;;;1.65;1.55;;;19.40;45.80;;;;;;6218693;23;20193;-86
2022/06/06 10:07:20;;;;;;;1.48;1.38;;;19.40;45.60;;;;;;6184195;23;20165;-86
2022/06/06 10:10:13;;;;;;;1.50;1.40;;;19.40;45.50;;;;;;6161898;23;20166;-86
2022/06/06 10:12:59;;;;;;;1.85;1.40;;;19.40;45.90;;;;;;6162252;23;20246;-86
2022/06/06 10:15:58;;;;;;;1.50;1.40;;;19.40;45.50;;;;;;6160167;23;20676;-86
2022/06/06 10:18:39;;;;;;;1.40;1.30;;;19.50;45.20;;;;;;6142065;23;20161;-86
2022/06/06 10:21:22;;;;;;;1.52;1.40;;;19.50;45.30;;;;;;6162232;23;20214;-86
2022/06/06 10:24:21;;;;;;;1.40;1.30;;;19.40;45.10;;;;;;6161493;23;20139;-86
2022/06/06 10:27:13;;;;;;;1.30;1.20;;;19.40;44.90;;;;;;6163777;23;20162;-86
2022/06/06 10:30:11;;;;;;;1.52;1.42;;;19.40;44.90;;;;;;6162609;23;20225;-86
2022/06/06 10:33:04;;;;;;;1.75;1.50;;;19.50;44.80;;;;;;6168952;23;20157;-86
2022/06/06 10:36:02;;;;;;;1.35;1.25;;;19.40;44.40;;;;;;6161394;23;20199;-85
2022/06/06 10:38:45;;;;;;;1.88;1.50;;;19.50;44.40;;;;;;6233213;23;20674;-86
2022/06/06 10:41:26;;;;;;;1.45;1.35;;;19.40;44.40;;;;;;6175803;23;20145;-86
2022/06/06 10:44:18;;;;;;;1.38;1.27;;;19.40;44.50;;;;;;6196355;23;20224;-86
2022/06/06 10:47:16;;;;;;;1.55;1.35;;;19.50;44.60;;;;;;6224504;23;20136;-87
2022/06/06 10:49:49;;;;;;;2.33;1.20;;;19.50;44.40;;;;;;6182532;23;20173;-86
2022/06/06 10:52:54;;;;;;;1.48;1.38;;;19.50;44.30;;;;;;6222816;23;20201;-86
2022/06/06 10:55:38;;;;;;;1.40;1.27;;;19.50;44.30;;;;;;6203921;23;20153;-86
2022/06/06 10:58:32;;;;;;;1.40;1.30;;;19.50;44.30;;;;;;6186932;23;20594;-86
2022/06/06 11:01:23;;;;;;;1.25;1.15;;;19.50;44.60;;;;;;6163884;23;20135;-86
2022/06/06 11:04:14;;;;;;;1.75;1.20;;;19.50;44.50;;;;;;6140063;23;20191;-86
2022/06/06 11:07:13;;;;;;;1.65;1.30;;;19.50;44.40;;;;;;6187353;23;20210;-86
2022/06/06 11:10:13;;;;;;;1.48;1.38;;;19.50;44.50;;;;;;6185287;23;20175;-87
2022/06/06 11:13:11;;;;;;;2.00;1.60;;;19.50;44.50;;;;;;6160723;23;20154;-86
2022/06/06 11:15:42;;;;;;;2.08;1.23;;;19.50;44.50;;;;;;6186682;23;20177;-87
2022/06/06 11:18:33;;;;;;;2.63;1.30;;;19.50;44.60;;;;;;6161080;23;20154;-86
2022/06/06 11:21:23;;;;;;;1.90;1.58;;;19.50;44.60;;;;;;6174234;23;20170;-86
2022/06/06 11:23:58;;;;;;;2.35;1.60;;;19.50;44.60;;;;;;6138661;23;20190;-86
2022/06/06 11:26:54;;;;;;;1.42;1.33;;;19.50;44.50;;;;;;6148704;23;20535;-86
2022/06/06 11:29:54;;;;;;;1.58;1.48;;;19.50;44.70;;;;;;6155039;23;20179;-86
2022/06/06 11:32:39;;;;;;;2.35;1.30;;;19.50;44.80;;;;;;6155094;23;20136;-86
2022/06/06 11:35:29;;;;;;;1.52;1.35;;;19.40;45.00;;;;;;6132822;23;20151;-86
2022/06/06 11:38:24;;;;;;;1.55;1.45;;;19.40;45.10;;;;;;6106598;23;20251;-86
2022/06/06 11:41:24;;;;;;;2.70;1.17;;;19.50;45.10;;;;;;6111768;23;20670;-86
2022/06/06 11:44:12;;;;;;;3.47;1.60;;;19.50;45.10;;;;;;6129890;23;20538;-86
2022/06/06 11:47:11;;;;;;;2.65;1.40;;;19.40;44.90;;;;;;6109468;23;20155;-87
2022/06/06 11:49:55;;;;;;;3.80;1.38;;;19.50;45.60;;;;;;6135914;23;20195;-86
2022/06/06 11:52:43;;;;;;;2.58;1.48;;;19.50;44.80;;;;;;6131710;23;20151;-86
2022/06/06 11:55:26;;;;;;;3.03;1.50;;;19.50;44.80;;;;;;6132761;23;20178;-86
2022/06/06 11:58:25;;;;;;;2.63;1.30;;;19.50;44.60;;;;;;6199964;23;20224;-86
2022/06/06 12:01:25;;;;;;;2.63;1.67;;;19.50;44.60;;;;;;6215973;23;20145;-86
2022/06/06 12:04:06;;;;;;;2.33;1.20;;;19.50;44.50;;;;;;6202223;23;20715;-86
2022/06/06 12:06:56;;;;;;;3.40;1.20;;;19.50;44.40;;;;;;6153646;23;20159;-86
2022/06/06 12:09:46;;;;;;;2.25;1.25;;;19.50;44.40;;;;;;6131619;23;20261;-86
2022/06/06 12:12:33;;;;;;;2.75;1.40;;;19.50;44.20;;;;;;6129176;23;20175;-86
2022/06/06 12:15:14;;;;;;;2.08;1.05;;;19.50;44.40;;;;;;6128867;23;20145;-86
2022/06/06 12:18:17;;;;;;;2.72;1.25;;;19.50;44.10;;;;;;6105916;23;20144;-86
2022/06/06 12:21:07;;;;;;;3.58;1.40;;;19.60;44.10;;;;;;6130065;23;20234;-86
2022/06/06 12:23:54;;;;;;;1.60;1.20;;;19.50;44.00;;;;;;6129992;23;20140;-86
2022/06/06 12:26:57;;;;;;;1.95;1.38;;;19.60;43.70;;;;;;6130545;23;20181;-87
2022/06/06 12:29:47;;;;;;;2.17;1.55;;;19.60;44.00;;;;;;6128894;23;20175;-86
2022/06/06 12:32:47;;;;;;;3.38;1.50;;;19.50;43.70;;;;;;6129626;23;20473;-86
2022/06/06 12:35:26;;;;;;;1.67;1.40;;;19.50;43.80;;;;;;6154215;23;20277;-86
2022/06/06 12:38:16;;;;;;;2.22;1.92;;;19.50;44.00;;;;;;6194438;23;20576;-86
2022/06/06 12:41:18;;;;;;;3.47;1.60;;;19.50;44.00;;;;;;6219726;23;20149;-86
2022/06/06 12:44:01;;;;;;;3.80;1.30;;;19.50;44.00;;;;;;6247239;23;20144;-86
2022/06/06 12:46:42;;;;;;;3.25;1.50;;;19.50;43.90;;;;;;6196564;23;20460;-86
2022/06/06 12:49:25;;;;;;;3.35;1.50;;;19.50;43.90;;;;;;6221459;23;20161;-86
2022/06/06 12:52:18;;;;;;;4.30;1.50;;;19.50;43.70;;;;;;6172434;23;20142;-86
2022/06/06 12:58:07;;;;;;;1.63;1.13;;;19.50;43.70;;;;;;6209064;23;20149;-86
2022/06/06 13:03:37;;;;;;;1.30;1.20;;;19.50;43.70;;;;;;6223739;23;20191;-86
2022/06/06 13:06:07;;;;;;;5.63;1.50;;;19.50;43.60;;;;;;6199643;23;20158;-86
2022/06/06 13:09:13;;;;;;;2.75;1.73;;;19.50;43.70;;;;;;6198823;23;20204;-86
2022/06/06 13:12:09;;;;;;;3.58;1.58;;;19.50;43.70;;;;;;6182948;23;20149;-86
2022/06/06 13:14:55;;;;;;;5.72;1.80;;;19.50;43.80;;;;;;6222742;23;20149;-86
2022/06/06 13:17:29;;;;;;;1.73;1.20;;;19.50;43.90;;;;;;6222210;23;20129;-86
2022/06/06 13:20:30;;;;;;;3.63;1.52;;;19.50;43.90;;;;;;6220926;23;20136;-86
2022/06/06 13:23:29;;;;;;;4.85;1.70;;;19.50;43.90;;;;;;6221755;23;20153;-86
2022/06/06 13:26:09;;;;;;;4.40;1.75;;;19.50;44.10;;;;;;6249515;23;20457;-86
2022/06/06 13:28:53;;;;;;;6.72;1.88;;;19.50;44.00;;;;;;6224819;23;20224;-87
2022/06/06 13:31:29;;;;;;;5.43;1.90;;;19.60;44.00;;;;;;6221855;23;20126;-86
2022/06/06 13:34:12;;;;;;;5.55;1.65;;;19.50;44.00;;;;;;6198391;23;20208;-86
2022/06/06 13:36:54;;;;;;;5.97;1.60;;;19.50;44.10;;;;;;6173250;23;20141;-86
2022/06/06 13:39:39;;;;;;;3.75;1.35;;;19.50;44.20;;;;;;6198950;23;20149;-85
2022/06/06 13:42:29;;;;;;;4.97;1.80;;;19.50;44.30;;;;;;6204320;23;20577;-86
2022/06/06 13:45:10;;;;;;;3.88;1.60;;;19.50;44.30;;;;;;6230315;23;20163;-85
2022/06/06 13:48:11;;;;;;;3.65;1.30;;;19.50;44.40;;;;;;6252349;23;20140;-86
2022/06/06 13:50:57;;;;;;;6.68;1.50;;;19.50;44.40;;;;;;6252175;23;20129;-86
2022/06/06 13:53:52;;;;;;;1.83;1.40;;;19.50;44.60;;;;;;6225398;23;20146;-86
2022/06/06 13:56:28;;;;;;;2.78;1.50;;;19.50;44.50;;;;;;6179267;23;20150;-86
2022/06/06 13:59:08;;;;;;;3.35;1.30;;;19.50;44.50;;;;;;6176468;23;20511;-86
2022/06/06 14:01:51;;;;;;;4.38;1.80;;;19.60;44.60;;;;;;6201428;23;20130;-86
2022/06/06 14:04:41;;;;;;;7.47;1.75;;;19.50;44.70;;;;;;6224254;23;20204;-86
2022/06/06 14:07:17;;;;;;;2.47;1.40;;;19.50;44.50;;;;;;6226376;23;20561;-85
2022/06/06 14:09:45;;;;;;;4.60;1.58;;;19.50;44.50;;;;;;6201072;23;20157;-86
2022/06/06 14:12:32;;;;;;;7.00;1.83;;;19.50;44.50;;;;;;6201204;23;20557;-86
2022/06/06 14:15:03;;;;;;;4.60;1.50;;;19.50;44.50;;;;;;6225780;23;20216;-87
2022/06/06 14:17:29;;;;;;;2.17;1.58;;;19.60;44.50;;;;;;6177659;23;20146;-86
2022/06/06 14:20:01;;;;;;;5.35;1.83;;;19.50;44.40;;;;;;6174682;23;20185;-86
2022/06/06 14:22:29;;;;;;;5.30;1.90;;;19.50;44.40;;;;;;6174526;23;20592;-86
2022/06/06 14:24:55;;;;;;;5.97;1.55;;;19.60;44.30;;;;;;6197081;23;20196;-86
2022/06/06 14:27:22;;;;;;;3.13;1.60;;;19.50;44.10;;;;;;6172608;23;20165;-86